createdAt,value
2023-03-18T00:01:22.686Z,9.40
2023-03-18T00:04:00.834Z,9.40
2023-03-18T00:06:31.940Z,9.40
2023-03-18T00:09:06.299Z,9.40
2023-03-18T00:11:46.479Z,9.40
2023-03-18T00:14:25.559Z,9.50
2023-03-18T00:16:55.239Z,9.50
2023-03-18T00:19:27.538Z,9.60
2023-03-18T00:22:05.664Z,9.60
2023-03-18T00:24:36.948Z,9.60
2023-03-18T00:27:07.663Z,9.70
2023-03-18T00:29:40.408Z,9.70
2023-03-18T00:32:14.259Z,9.80
2023-03-18T00:34:46.660Z,9.80
2023-03-18T00:37:27.879Z,9.80
2023-03-18T00:40:06.970Z,9.80
2023-03-18T00:42:53.892Z,9.80
2023-03-18T00:45:43.852Z,9.80
2023-03-18T00:48:19.134Z,9.80
2023-03-18T00:50:50.299Z,9.80
2023-03-18T00:53:23.877Z,9.80
2023-03-18T00:56:06.972Z,9.80
2023-03-18T00:58:45.713Z,9.80
2023-03-18T01:01:17.286Z,9.90
2023-03-18T01:03:46.510Z,9.90
2023-03-18T01:06:19.002Z,9.80
2023-03-18T01:08:52.095Z,9.70
2023-03-18T01:11:26.405Z,9.70
2023-03-18T01:13:55.550Z,9.70
2023-03-18T01:16:25.957Z,9.70
2023-03-18T01:19:03.419Z,9.70
2023-03-18T01:21:36.834Z,9.70
2023-03-18T01:24:07.840Z,9.60
2023-03-18T01:26:37.097Z,9.70
2023-03-18T01:29:10.993Z,9.80
2023-03-18T01:31:43.580Z,9.80
2023-03-18T01:34:12.670Z,9.90
2023-03-18T01:36:42.296Z,9.90
2023-03-18T01:39:13.210Z,9.90
2023-03-18T01:41:44.879Z,9.90
2023-03-18T01:44:18.396Z,9.80
2023-03-18T01:46:50.163Z,9.90
2023-03-18T01:49:37.646Z,9.90
2023-03-18T01:52:13.945Z,9.90
2023-03-18T01:54:46.609Z,9.90
2023-03-18T01:57:19.798Z,10.00
2023-03-18T02:00:00.590Z,10.00
2023-03-18T02:02:50.658Z,10.00
2023-03-18T02:07:54.300Z,10.10
2023-03-18T02:10:31.652Z,10.00
2023-03-18T02:13:12.151Z,10.00
2023-03-18T02:15:55.816Z,10.10
2023-03-18T02:18:36.451Z,10.10
2023-03-18T02:21:30.290Z,10.00
2023-03-18T02:24:17.590Z,10.00
2023-03-18T02:26:56.304Z,10.00
2023-03-18T02:29:32.677Z,10.00
2023-03-18T02:32:07.055Z,10.00
2023-03-18T02:34:37.248Z,9.80
2023-03-18T02:37:17.996Z,9.70
2023-03-18T02:39:50.547Z,9.70
2023-03-18T02:42:30.197Z,9.60
2023-03-18T02:45:09.236Z,9.60
2023-03-18T02:47:43.512Z,9.60
2023-03-18T02:50:19.858Z,9.60
2023-03-18T02:52:50.296Z,9.70
2023-03-18T02:55:24.589Z,9.60
2023-03-18T02:58:01.605Z,9.60
2023-03-18T03:00:32.210Z,9.60
2023-03-18T03:03:08.381Z,9.60
2023-03-18T03:05:41.200Z,9.60
2023-03-18T03:08:11.973Z,9.50
2023-03-18T03:10:41.567Z,9.50
2023-03-18T03:13:11.812Z,9.50
2023-03-18T03:15:43.364Z,9.60
2023-03-18T03:18:14.869Z,9.70
2023-03-18T03:21:02.530Z,9.70
2023-03-18T03:23:40.564Z,9.80
2023-03-18T03:26:11.961Z,9.80
2023-03-18T03:28:44.390Z,9.80
2023-03-18T03:31:24.082Z,9.80
2023-03-18T03:34:01.162Z,9.90
2023-03-18T03:36:32.061Z,9.90
2023-03-18T03:39:04.335Z,9.90
2023-03-18T03:41:34.410Z,9.90
2023-03-18T03:44:06.260Z,9.80
2023-03-18T03:46:47.043Z,9.70
2023-03-18T03:49:29.711Z,9.60
2023-03-18T03:52:02.925Z,9.60
2023-03-18T03:54:31.857Z,9.50
2023-03-18T03:57:04.371Z,9.40
2023-03-18T03:59:44.354Z,9.40
2023-03-18T04:02:33.533Z,9.40
2023-03-18T04:05:02.811Z,9.40
2023-03-18T04:07:39.331Z,9.30
2023-03-18T04:10:10.948Z,9.30
2023-03-18T04:12:50.045Z,9.20
2023-03-18T04:15:20.009Z,9.10
2023-03-18T04:17:55.687Z,9.10
2023-03-18T04:20:25.643Z,9.10
2023-03-18T04:22:58.841Z,9.10
2023-03-18T04:25:46.191Z,9.20
2023-03-18T04:28:19.017Z,9.10
2023-03-18T04:30:53.387Z,9.00
2023-03-18T04:33:26.760Z,9.00
2023-03-18T04:36:05.162Z,9.00
2023-03-18T04:38:41.880Z,9.00
2023-03-18T04:41:18.597Z,9.00
2023-03-18T04:43:57.968Z,8.90
2023-03-18T04:46:33.368Z,8.90
2023-03-18T04:49:23.287Z,8.90
2023-03-18T04:52:02.529Z,9.00
2023-03-18T04:54:37.293Z,9.00
2023-03-18T04:57:19.645Z,9.10
2023-03-18T04:59:51.816Z,9.10
2023-03-18T05:02:26.242Z,9.20
2023-03-18T05:05:02.066Z,9.20
2023-03-18T05:07:34.200Z,9.20
2023-03-18T05:10:07.554Z,9.20
2023-03-18T05:12:45.198Z,9.20
2023-03-18T05:15:22.199Z,9.20
2023-03-18T05:17:59.248Z,9.30
2023-03-18T05:20:30.358Z,9.30
2023-03-18T05:23:15.661Z,9.30
2023-03-18T05:25:50.353Z,9.30
2023-03-18T05:28:29.917Z,9.40
2023-03-18T05:31:11.078Z,9.40
2023-03-18T05:33:42.970Z,9.40
2023-03-18T05:36:20.416Z,9.40
2023-03-18T05:38:59.458Z,9.30
2023-03-18T05:41:35.857Z,9.20
2023-03-18T05:44:10.062Z,9.20
2023-03-18T05:46:47.114Z,9.20
2023-03-18T05:49:22.497Z,9.30
2023-03-18T05:51:55.294Z,9.30
2023-03-18T05:54:27.254Z,9.40
2023-03-18T05:56:58.696Z,9.40
2023-03-18T05:59:30.375Z,9.40
2023-03-18T06:02:03.796Z,9.40
2023-03-18T06:04:38.199Z,9.40
2023-03-18T06:07:12.789Z,9.40
2023-03-18T06:09:56.876Z,9.40
2023-03-18T06:12:33.140Z,9.50
2023-03-18T06:15:08.489Z,9.40
2023-03-18T06:17:41.492Z,9.50
2023-03-18T06:20:14.378Z,9.60
2023-03-18T06:22:52.136Z,9.60
2023-03-18T06:25:27.121Z,9.50
2023-03-18T06:27:59.141Z,9.60
2023-03-18T06:30:45.858Z,9.60
2023-03-18T06:33:19.441Z,9.60
2023-03-18T06:35:54.808Z,9.60
2023-03-18T06:38:25.182Z,9.70
2023-03-18T06:40:55.910Z,9.70
2023-03-18T06:43:29.811Z,9.80
2023-03-18T06:46:05.731Z,9.90
2023-03-18T06:48:40.863Z,10.00
2023-03-18T06:51:14.279Z,10.10
2023-03-18T06:53:53.930Z,10.20
2023-03-18T06:56:27.441Z,10.30
2023-03-18T06:59:04.957Z,10.50
2023-03-18T07:01:34.290Z,10.60
2023-03-18T07:04:07.210Z,10.70
2023-03-18T07:06:38.292Z,10.80
2023-03-18T07:09:17.990Z,11.00
2023-03-18T07:11:52.724Z,11.10
2023-03-18T07:14:28.620Z,11.30
2023-03-18T07:17:02.787Z,11.50
2023-03-18T07:19:33.292Z,11.80
2023-03-18T07:22:02.671Z,11.90
2023-03-18T07:24:37.013Z,11.90
2023-03-18T07:27:15.318Z,12.00
2023-03-18T07:29:50.218Z,11.90
2023-03-18T07:32:20.065Z,11.90
2023-03-18T07:34:49.078Z,11.80
2023-03-18T07:37:25.689Z,11.90
2023-03-18T07:40:01.640Z,11.90
2023-03-18T07:42:30.651Z,12.00
2023-03-18T07:45:14.079Z,12.00
2023-03-18T07:47:50.627Z,12.00
2023-03-18T07:50:22.680Z,12.00
2023-03-18T07:52:55.526Z,12.20
2023-03-18T07:55:31.053Z,12.30
2023-03-18T07:58:12.140Z,12.50
2023-03-18T08:00:41.337Z,12.70
2023-03-18T08:03:17.601Z,12.80
2023-03-18T08:05:51.808Z,12.90
2023-03-18T08:08:22.934Z,12.90
2023-03-18T08:11:06.098Z,13.00
2023-03-18T08:13:37.598Z,12.90
2023-03-18T08:16:11.094Z,13.00
2023-03-18T08:18:47.638Z,13.10
2023-03-18T08:21:19.299Z,13.10
2023-03-18T08:23:49.740Z,13.10
2023-03-18T08:26:26.573Z,13.10
2023-03-18T08:28:59.463Z,13.10
2023-03-18T08:31:31.618Z,13.10
2023-03-18T08:34:11.057Z,13.20
2023-03-18T08:36:45.805Z,13.20
2023-03-18T08:39:17.056Z,13.20
2023-03-18T08:41:49.307Z,13.30
2023-03-18T08:44:29.277Z,13.30
2023-03-18T08:47:27.939Z,13.20
2023-03-18T08:49:59.539Z,13.10
2023-03-18T08:52:32.872Z,13.10
2023-03-18T08:55:12.581Z,13.00
2023-03-18T08:57:46.726Z,13.10
2023-03-18T09:00:19.469Z,13.20
2023-03-18T09:02:53.871Z,13.20
2023-03-18T09:05:24.210Z,13.20
2023-03-18T09:08:04.962Z,13.10
2023-03-18T09:10:36.211Z,13.00
2023-03-18T09:13:14.452Z,12.80
2023-03-18T09:15:44.971Z,12.80
2023-03-18T09:18:16.568Z,12.80
2023-03-18T09:20:47.609Z,12.80
2023-03-18T09:23:18.885Z,12.90
2023-03-18T09:25:48.818Z,13.10
2023-03-18T09:28:26.638Z,13.30
2023-03-18T09:30:56.094Z,13.70
2023-03-18T09:33:29.587Z,14.20
2023-03-18T09:36:07.243Z,14.50
2023-03-18T09:38:39.158Z,14.20
2023-03-18T09:41:23.468Z,14.00
2023-03-18T09:44:27.548Z,13.80
2023-03-18T09:47:23.189Z,13.70
2023-03-18T09:50:33.264Z,13.60
2023-03-18T09:53:23.777Z,13.50
2023-03-18T09:55:58.100Z,13.40
2023-03-18T09:58:37.125Z,13.50
2023-03-18T10:01:24.936Z,13.70
2023-03-18T10:04:16.379Z,14.10
2023-03-18T10:06:49.554Z,14.40
2023-03-18T10:09:29.360Z,14.70
2023-03-18T10:12:17.661Z,14.90
2023-03-18T10:14:53.840Z,15.30
2023-03-18T10:17:37.716Z,15.80
2023-03-18T10:20:20.069Z,16.10
2023-03-18T10:23:17.891Z,17.20
2023-03-18T10:25:55.634Z,18.00
2023-03-18T10:28:52.282Z,17.30
2023-03-18T10:31:37.913Z,18.50
2023-03-18T10:34:36.393Z,20.00
2023-03-18T10:37:34.893Z,21.90
2023-03-18T10:40:33.612Z,21.20
2023-03-18T10:43:06.296Z,20.10
2023-03-18T10:45:50.727Z,19.00
2023-03-18T10:48:38.775Z,18.60
2023-03-18T10:51:17.803Z,18.20
2023-03-18T10:54:07.460Z,18.00
2023-03-18T10:56:46.623Z,18.10
2023-03-18T10:59:25.909Z,19.00
2023-03-18T11:01:59.292Z,19.40
2023-03-18T11:04:37.377Z,19.00
2023-03-18T11:07:18.932Z,18.20
2023-03-18T11:10:05.044Z,17.70
2023-03-18T11:12:39.558Z,17.50
2023-03-18T11:15:19.306Z,17.20
2023-03-18T11:18:02.251Z,17.00
2023-03-18T11:20:44.278Z,17.10
2023-03-18T11:23:46.132Z,17.80
2023-03-18T11:26:37.380Z,19.40
2023-03-18T11:29:27.406Z,20.60
2023-03-18T11:31:59.017Z,20.30
2023-03-18T11:34:34.340Z,19.70
2023-03-18T11:37:06.157Z,19.30
2023-03-18T11:39:59.293Z,19.40
2023-03-18T11:42:35.061Z,19.40
2023-03-18T11:45:32.520Z,19.20
2023-03-18T11:48:17.452Z,18.90
2023-03-18T11:51:14.730Z,18.80
2023-03-18T11:54:25.650Z,19.30
2023-03-18T11:57:21.236Z,18.90
2023-03-18T12:00:19.890Z,18.70
2023-03-18T12:03:25.450Z,18.50
2023-03-18T12:06:13.441Z,19.50
2023-03-18T12:08:57.823Z,20.70
2023-03-18T12:11:45.283Z,22.00
2023-03-18T12:14:34.978Z,21.30
2023-03-18T12:17:19.296Z,20.40
2023-03-18T12:20:24.131Z,19.90
2023-03-18T12:23:14.116Z,19.50
2023-03-18T12:26:06.452Z,19.40
2023-03-18T12:29:20.200Z,19.30
2023-03-18T12:34:54.563Z,19.30
2023-03-18T12:37:50.954Z,19.30
2023-03-18T12:40:50.054Z,19.90
2023-03-18T12:43:54.016Z,19.70
2023-03-18T12:46:36.818Z,19.30
2023-03-18T12:49:25.088Z,18.80
2023-03-18T12:52:12.622Z,18.50
2023-03-18T12:54:49.639Z,18.70
2023-03-18T12:57:43.947Z,19.20
2023-03-18T13:03:36.502Z,21.80
2023-03-18T13:06:31.316Z,23.20
2023-03-18T13:09:13.260Z,24.30
2023-03-18T13:12:03.385Z,25.00
2023-03-18T13:14:45.123Z,25.70
2023-03-18T13:17:37.874Z,25.40
2023-03-18T13:20:36.174Z,25.60
2023-03-18T13:23:48.836Z,26.40
2023-03-18T13:26:32.605Z,27.00
2023-03-18T13:29:26.928Z,27.50
2023-03-18T13:32:12.814Z,27.50
2023-03-18T13:35:17.920Z,28.10
2023-03-18T13:41:55.404Z,28.80
2023-03-18T13:45:00.717Z,29.20
2023-03-18T13:47:42.995Z,29.10
2023-03-18T13:50:47.854Z,29.30
2023-03-18T13:53:27.779Z,29.50
2023-03-18T13:56:07.455Z,29.60
2023-03-18T13:59:00.095Z,29.70
2023-03-18T14:01:51.985Z,29.50
2023-03-18T14:04:39.086Z,29.10
2023-03-18T14:07:18.249Z,29.00
2023-03-18T14:10:18.877Z,29.00
2023-03-18T14:13:16.825Z,29.10
2023-03-18T14:16:22.796Z,28.90
2023-03-18T14:19:08.450Z,28.70
2023-03-18T14:22:03.868Z,28.60
2023-03-18T14:24:35.566Z,28.70
2023-03-18T14:27:24.840Z,28.70
2023-03-18T14:30:08.385Z,28.70
2023-03-18T14:32:50.492Z,28.20
2023-03-18T14:35:58.492Z,27.30
2023-03-18T14:38:36.624Z,26.90
2023-03-18T14:41:26.647Z,26.30
2023-03-18T14:44:10.221Z,25.40
2023-03-18T14:46:51.329Z,24.60
2023-03-18T14:49:48.203Z,24.10
2023-03-18T14:52:42.421Z,23.50
2023-03-18T14:55:33.752Z,22.90
2023-03-18T14:58:08.835Z,22.30
2023-03-18T15:00:48.879Z,22.20
2023-03-18T15:03:28.999Z,22.10
2023-03-18T15:06:11.144Z,21.90
2023-03-18T15:08:59.128Z,21.60
2023-03-18T15:11:44.677Z,21.20
2023-03-18T15:14:18.634Z,20.90
2023-03-18T15:16:54.708Z,20.60
2023-03-18T15:19:33.691Z,20.20
2023-03-18T15:22:08.982Z,19.90
2023-03-18T15:24:46.132Z,19.40
2023-03-18T15:27:23.943Z,19.20
2023-03-18T15:30:03.732Z,19.00
2023-03-18T15:33:03.934Z,18.80
2023-03-18T15:35:49.860Z,18.60
2023-03-18T15:38:27.120Z,18.60
2023-03-18T15:41:12.235Z,18.50
2023-03-18T15:43:45.172Z,18.30
2023-03-18T15:46:35.180Z,18.20
2023-03-18T15:49:06.417Z,18.00
2023-03-18T15:51:52.906Z,17.90
2023-03-18T15:54:28.957Z,17.80
2023-03-18T15:57:20.133Z,17.80
2023-03-18T16:00:00.419Z,18.00
2023-03-18T16:02:32.802Z,18.20
2023-03-18T16:05:28.401Z,18.40
2023-03-18T16:07:59.975Z,18.50
2023-03-18T16:10:33.113Z,18.40
2023-03-18T16:13:15.357Z,18.10
2023-03-18T16:15:47.454Z,17.80
2023-03-18T16:18:23.648Z,17.60
2023-03-18T16:20:54.707Z,17.30
2023-03-18T16:23:25.849Z,17.20
2023-03-18T16:26:07.199Z,16.90
2023-03-18T16:28:43.258Z,16.70
2023-03-18T16:31:18.168Z,16.60
2023-03-18T16:33:55.744Z,16.40
2023-03-18T16:36:36.272Z,16.30
2023-03-18T16:39:19.040Z,16.10
2023-03-18T16:41:49.976Z,16.00
2023-03-18T16:44:29.906Z,15.80
2023-03-18T16:47:07.414Z,15.70
2023-03-18T16:49:44.811Z,15.60
2023-03-18T16:54:59.520Z,15.20
2023-03-18T16:57:31.159Z,15.10
2023-03-18T17:00:14.182Z,14.90
2023-03-18T17:02:46.296Z,14.70
2023-03-18T17:05:23.520Z,14.50
2023-03-18T17:07:59.242Z,14.30
2023-03-18T17:10:40.273Z,14.20
2023-03-18T17:13:14.879Z,14.20
2023-03-18T17:16:04.176Z,14.20
2023-03-18T17:18:48.445Z,14.10
2023-03-18T17:21:27.522Z,14.10
2023-03-18T17:24:07.817Z,14.10
2023-03-18T17:26:44.495Z,14.10
2023-03-18T17:29:25.342Z,14.00
2023-03-18T17:32:01.247Z,13.80
2023-03-18T17:34:32.433Z,13.50
2023-03-18T17:37:05.022Z,13.40
2023-03-18T17:39:38.007Z,13.20
2023-03-18T17:42:32.802Z,13.00
2023-03-18T17:45:11.061Z,12.80
2023-03-18T17:47:48.287Z,12.60
2023-03-18T17:50:20.976Z,12.40
2023-03-18T17:52:56.419Z,12.20
2023-03-18T17:55:28.810Z,12.10
2023-03-18T17:58:05.062Z,12.20
2023-03-18T18:00:41.061Z,12.30
2023-03-18T18:03:28.717Z,12.30
2023-03-18T18:06:00.745Z,12.40
2023-03-18T18:08:59.741Z,12.40
2023-03-18T18:11:35.881Z,12.30
2023-03-18T18:14:25.172Z,12.40
2023-03-18T18:17:01.130Z,12.50
2023-03-18T18:19:41.574Z,12.40
2023-03-18T18:22:22.605Z,12.30
2023-03-18T18:25:00.827Z,12.30
2023-03-18T18:27:34.957Z,12.30
2023-03-18T18:30:16.049Z,12.40
2023-03-18T18:32:58.634Z,12.30
2023-03-18T18:35:36.343Z,12.10
2023-03-18T18:38:09.163Z,12.10
2023-03-18T18:40:48.821Z,12.10
2023-03-18T18:43:19.303Z,12.00
2023-03-18T18:45:56.130Z,11.90
2023-03-18T18:48:35.679Z,11.90
2023-03-18T18:51:21.653Z,12.00
2023-03-18T18:54:13.485Z,12.00
2023-03-18T18:56:53.944Z,12.10
2023-03-18T18:59:44.686Z,12.00
2023-03-18T19:02:54.553Z,12.00
2023-03-18T19:05:27.943Z,12.00
2023-03-18T19:08:11.430Z,12.00
2023-03-18T19:10:45.064Z,12.10
2023-03-18T19:13:22.377Z,12.10
2023-03-18T19:16:06.876Z,12.10
2023-03-18T19:18:45.630Z,12.20
2023-03-18T19:21:17.760Z,12.20
2023-03-18T19:23:59.734Z,12.30
2023-03-18T19:26:34.934Z,12.20
2023-03-18T19:29:12.436Z,12.20
2023-03-18T19:31:50.445Z,12.20
2023-03-18T19:34:28.741Z,12.30
2023-03-18T19:37:05.806Z,12.40
2023-03-18T19:39:45.456Z,12.40
2023-03-18T19:42:22.222Z,12.40
2023-03-18T19:44:57.273Z,12.30
2023-03-18T19:47:33.761Z,12.20
2023-03-18T19:50:13.396Z,12.20
2023-03-18T19:52:53.500Z,12.30
2023-03-18T19:55:31.071Z,12.30
2023-03-18T19:58:13.157Z,12.40
2023-03-18T20:00:46.533Z,12.30
2023-03-18T20:03:22.209Z,12.30
2023-03-18T20:06:02.156Z,12.30
2023-03-18T20:08:33.196Z,12.30
2023-03-18T20:11:07.626Z,12.30
2023-03-18T20:13:50.283Z,12.30
2023-03-18T20:16:30.960Z,12.30
2023-03-18T20:19:07.342Z,12.30
2023-03-18T20:21:53.236Z,12.20
2023-03-18T20:24:31.868Z,12.20
2023-03-18T20:27:36.441Z,12.20
2023-03-18T20:30:24.275Z,12.10
2023-03-18T20:33:02.650Z,12.10
2023-03-18T20:35:43.283Z,12.10
2023-03-18T20:38:18.532Z,12.00
2023-03-18T20:40:53.593Z,12.00
2023-03-18T20:43:28.901Z,11.90
2023-03-18T20:46:12.204Z,11.80
2023-03-18T20:48:41.951Z,11.60
2023-03-18T20:51:33.034Z,11.30
2023-03-18T20:54:16.241Z,11.10
2023-03-18T20:56:49.304Z,11.00
2023-03-18T20:59:22.053Z,11.00
2023-03-18T21:01:53.035Z,10.90
2023-03-18T21:04:37.868Z,10.90
2023-03-18T21:07:13.814Z,11.00
2023-03-18T21:09:45.636Z,11.00
2023-03-18T21:12:24.307Z,11.10
2023-03-18T21:15:09.797Z,11.10
2023-03-18T21:17:43.105Z,11.10
2023-03-18T21:20:22.512Z,11.20
2023-03-18T21:23:03.715Z,11.10
2023-03-18T21:25:44.361Z,11.10
2023-03-18T21:28:16.107Z,11.10
2023-03-18T21:30:50.478Z,11.20
2023-03-18T21:33:32.465Z,11.10
2023-03-18T21:36:19.910Z,11.10
2023-03-18T21:38:57.052Z,11.00
2023-03-18T21:41:32.781Z,11.00
2023-03-18T21:44:13.485Z,11.00
2023-03-18T21:46:53.500Z,10.90
2023-03-18T21:49:29.311Z,10.90
2023-03-18T21:52:03.749Z,11.00
2023-03-18T21:54:36.397Z,11.10
2023-03-18T21:57:08.121Z,11.20
2023-03-18T21:59:39.901Z,11.20
2023-03-18T22:02:33.063Z,11.20
2023-03-18T22:05:06.374Z,11.20
2023-03-18T22:07:39.868Z,11.10
2023-03-18T22:10:23.201Z,11.20
2023-03-18T22:12:56.776Z,11.20
2023-03-18T22:15:45.520Z,11.30
2023-03-18T22:18:20.719Z,11.40
2023-03-18T22:20:55.669Z,11.30
2023-03-18T22:23:34.739Z,11.40
2023-03-18T22:26:16.435Z,11.40
2023-03-18T22:28:51.959Z,11.40
2023-03-18T22:31:26.965Z,11.40
2023-03-18T22:34:01.840Z,11.50
2023-03-18T22:36:33.480Z,11.50
2023-03-18T22:39:03.818Z,11.50
2023-03-18T22:41:42.300Z,11.50
2023-03-18T22:44:24.592Z,11.40
2023-03-18T22:46:55.808Z,11.30
2023-03-18T22:49:39.716Z,11.20
2023-03-18T22:52:21.562Z,11.20
2023-03-18T22:54:57.092Z,11.20
2023-03-18T22:57:36.826Z,11.20
2023-03-18T23:00:15.453Z,11.10
2023-03-18T23:02:57.318Z,11.10
2023-03-18T23:05:30.843Z,11.00
2023-03-18T23:08:03.150Z,10.80
2023-03-18T23:10:44.263Z,10.90
2023-03-18T23:13:25.715Z,11.00
2023-03-18T23:16:03.518Z,11.10
2023-03-18T23:18:50.638Z,11.20
2023-03-18T23:21:31.465Z,11.20
2023-03-18T23:24:19.009Z,11.10
2023-03-18T23:26:53.238Z,11.10
2023-03-18T23:29:25.370Z,11.00
2023-03-18T23:31:56.977Z,10.70
2023-03-18T23:34:30.859Z,10.60
2023-03-18T23:37:05.622Z,10.60
2023-03-18T23:39:35.935Z,10.40
2023-03-18T23:42:06.364Z,10.20
2023-03-18T23:44:38.429Z,10.10
2023-03-18T23:47:16.738Z,10.00
2023-03-18T23:50:01.320Z,9.90
2023-03-18T23:52:34.087Z,9.80
2023-03-18T23:55:34.025Z,9.80
2023-03-18T23:58:04.887Z,9.80
